Terminal Aerodrome Forecast
Issued by NWS Memphis, TN

Home | Current Version | Previous Version | Text Only | Print | Product List | Glossary On
Versions: 1 2 3 4 5 6 7 8 9 10 11 12 13 14 15 16 17 18
600
FTUS44 KMEG 210531
TAFMKL
TAF
KMKL 210531Z 2106/2206 19005KT P6SM BKN250
     FM211600 18010KT P6SM SCT025 BKN250
     FM220100 16010G18KT 6SM -TSRA BKN025CB OVC100
      TEMPO 2201/2205 1SM +TSRA BKN015CB=

USA.gov is the U.S. government's official web portal to all federal, state and local government web resources and services.